createdAt,value
2018-04-10T00:00:05.517Z,12.94
2018-04-10T00:02:33.836Z,12.52
2018-04-10T00:05:02.197Z,12.12
2018-04-10T00:07:30.541Z,12.30
2018-04-10T00:09:58.888Z,12.40
2018-04-10T00:12:27.210Z,12.37
2018-04-10T00:14:55.582Z,12.45
2018-04-10T00:17:23.901Z,12.38
2018-04-10T00:19:52.241Z,12.41
2018-04-10T00:22:20.618Z,12.28
2018-04-10T00:24:48.994Z,12.01
2018-04-10T00:27:17.375Z,11.98
2018-04-10T00:29:45.730Z,12.04
2018-04-10T00:32:14.129Z,12.20
2018-04-10T00:34:42.469Z,12.03
2018-04-10T00:37:10.882Z,11.87
2018-04-10T00:39:39.189Z,12.04
2018-04-10T00:42:07.528Z,11.74
2018-04-10T00:44:35.853Z,11.83
2018-04-10T00:47:04.204Z,11.88
2018-04-10T00:49:32.521Z,11.93
2018-04-10T00:52:00.857Z,11.90
2018-04-10T00:54:29.195Z,11.56
2018-04-10T00:56:57.686Z,11.87
2018-04-10T00:59:26.077Z,11.74
2018-04-10T01:01:54.451Z,11.38
2018-04-10T01:04:22.833Z,11.32
2018-04-10T01:06:51.184Z,11.32
2018-04-10T01:09:19.588Z,11.21
2018-04-10T01:11:47.931Z,11.53
2018-04-10T01:14:16.249Z,11.44
2018-04-10T01:16:44.587Z,11.37
2018-04-10T01:19:12.884Z,11.28
2018-04-10T01:21:41.238Z,11.05
2018-04-10T01:24:09.656Z,11.07
2018-04-10T01:26:38.032Z,11.23
2018-04-10T01:29:06.365Z,11.32
2018-04-10T01:31:34.710Z,11.16
2018-04-10T01:34:03.070Z,11.26
2018-04-10T01:36:31.391Z,11.31
2018-04-10T01:38:59.727Z,11.08
2018-04-10T01:41:28.123Z,11.13
2018-04-10T01:43:56.447Z,11.32
2018-04-10T01:46:24.769Z,11.42
2018-04-10T01:48:53.178Z,11.44
2018-04-10T01:51:21.535Z,11.79
2018-04-10T01:53:49.865Z,11.93
2018-04-10T01:56:18.176Z,11.93
2018-04-10T01:58:46.505Z,11.94
2018-04-10T02:01:14.922Z,11.94
2018-04-10T02:03:43.300Z,11.76
2018-04-10T02:06:11.622Z,11.21
2018-04-10T02:08:39.986Z,11.58
2018-04-10T02:11:08.289Z,11.64
2018-04-10T02:13:36.640Z,11.63
2018-04-10T02:16:04.992Z,11.42
2018-04-10T02:18:33.307Z,11.43
2018-04-10T02:21:01.748Z,11.25
2018-04-10T02:23:30.072Z,11.46
2018-04-10T02:25:58.419Z,11.41
2018-04-10T02:28:26.732Z,11.12
2018-04-10T02:30:55.159Z,11.47
2018-04-10T02:33:23.472Z,11.49
2018-04-10T02:35:51.803Z,11.38
2018-04-10T02:38:20.122Z,11.40
2018-04-10T02:40:48.470Z,11.37
2018-04-10T02:43:16.789Z,11.40
2018-04-10T02:45:45.124Z,11.18
2018-04-10T02:48:13.492Z,11.19
2018-04-10T02:50:41.873Z,11.23
2018-04-10T02:53:10.257Z,11.13
2018-04-10T02:55:38.594Z,11.17
2018-04-10T02:58:06.905Z,11.30
2018-04-10T03:00:35.269Z,11.29
2018-04-10T03:03:03.642Z,11.26
2018-04-10T03:05:31.960Z,11.27
2018-04-10T03:08:00.312Z,11.30
2018-04-10T03:10:28.792Z,11.37
2018-04-10T03:12:57.136Z,11.45
2018-04-10T03:15:25.464Z,11.39
2018-04-10T03:17:53.792Z,11.48
2018-04-10T03:20:22.096Z,11.46
2018-04-10T03:22:50.443Z,11.49
2018-04-10T03:25:18.754Z,11.54
2018-04-10T03:27:47.094Z,11.48
2018-04-10T03:30:15.433Z,11.38
2018-04-10T03:32:43.765Z,11.46
2018-04-10T03:35:12.075Z,11.02
2018-04-10T03:37:40.462Z,11.31
2018-04-10T03:40:08.761Z,11.42
2018-04-10T03:42:37.096Z,11.48
2018-04-10T03:45:05.486Z,11.48
2018-04-10T03:47:34.000Z,11.42
2018-04-10T03:50:02.321Z,11.24
2018-04-10T03:52:30.658Z,11.36
2018-04-10T03:54:59.024Z,11.43
2018-04-10T03:57:27.326Z,11.43
2018-04-10T03:59:55.672Z,11.48
2018-04-10T04:02:23.996Z,11.42
2018-04-10T04:04:52.336Z,11.39
2018-04-10T04:07:20.655Z,11.37
2018-04-10T04:09:49.067Z,11.27
2018-04-10T04:12:17.369Z,11.38
2018-04-10T04:14:45.714Z,11.32
2018-04-10T04:17:25.892Z,11.20
2018-04-10T04:20:06.200Z,11.19
2018-04-10T04:22:38.505Z,11.20
2018-04-10T04:25:06.838Z,11.17
2018-04-10T04:27:35.188Z,11.19
2018-04-10T04:30:03.517Z,11.16
2018-04-10T04:32:31.832Z,11.17
2018-04-10T04:35:00.488Z,11.06
2018-04-10T04:37:28.813Z,11.12
2018-04-10T04:39:57.120Z,11.20
2018-04-10T04:42:25.468Z,11.26
2018-04-10T04:44:53.787Z,11.16
2018-04-10T04:47:22.185Z,11.25
2018-04-10T04:49:50.499Z,11.14
2018-04-10T04:52:18.884Z,11.08
2018-04-10T04:54:47.185Z,11.14
2018-04-10T04:57:15.605Z,11.18
2018-04-10T04:59:43.997Z,11.24
2018-04-10T05:02:12.340Z,11.17
2018-04-10T05:04:40.656Z,11.26
2018-04-10T05:07:09.000Z,11.17
2018-04-10T05:09:37.328Z,11.13
2018-04-10T05:12:05.668Z,11.22
2018-04-10T05:14:33.993Z,11.21
2018-04-10T05:17:02.339Z,11.23
2018-04-10T05:19:30.769Z,11.22
2018-04-10T05:21:59.177Z,11.26
2018-04-10T05:24:27.550Z,11.30
2018-04-10T05:26:55.888Z,11.33
2018-04-10T05:29:24.224Z,11.38
2018-04-10T05:31:52.560Z,11.29
2018-04-10T05:34:20.913Z,11.43
2018-04-10T05:36:49.245Z,11.51
2018-04-10T05:39:17.592Z,11.38
2018-04-10T05:41:45.908Z,11.55
2018-04-10T05:44:14.252Z,11.60
2018-04-10T05:46:42.690Z,11.68
2018-04-10T05:49:11.020Z,11.74
2018-04-10T05:51:39.348Z,11.86
2018-04-10T05:54:07.727Z,11.93
2018-04-10T05:56:36.050Z,12.02
2018-04-10T05:59:04.453Z,12.00
2018-04-10T06:01:32.784Z,12.14
2018-04-10T06:04:01.129Z,12.20
2018-04-10T06:06:29.460Z,12.42
2018-04-10T06:08:57.803Z,12.48
2018-04-10T06:11:26.176Z,12.56
2018-04-10T06:13:54.503Z,12.59
2018-04-10T06:16:22.880Z,12.74
2018-04-10T06:18:51.228Z,12.71
2018-04-10T06:21:19.689Z,12.85
2018-04-10T06:23:47.980Z,12.84
2018-04-10T06:26:16.394Z,12.81
2018-04-10T06:28:44.819Z,13.07
2018-04-10T06:31:13.152Z,13.01
2018-04-10T06:33:41.493Z,13.20
2018-04-10T06:36:09.912Z,13.34
2018-04-10T06:38:38.329Z,13.33
2018-04-10T06:41:06.652Z,13.43
2018-04-10T06:43:35.000Z,13.58
2018-04-10T06:46:03.361Z,13.56
2018-04-10T06:48:31.737Z,13.64
2018-04-10T06:51:00.054Z,13.82
2018-04-10T06:53:28.452Z,13.97
2018-04-10T06:55:56.779Z,14.15
2018-04-10T06:58:25.211Z,14.20
2018-04-10T07:00:53.601Z,14.42
2018-04-10T07:03:21.961Z,14.13
2018-04-10T07:05:50.277Z,14.22
2018-04-10T07:08:18.741Z,14.08
2018-04-10T07:10:47.092Z,13.95
2018-04-10T07:13:15.521Z,14.10
2018-04-10T07:15:43.809Z,14.25
2018-04-10T07:18:12.160Z,14.47
2018-04-10T07:20:40.490Z,14.31
2018-04-10T07:23:08.853Z,14.46
2018-04-10T07:25:37.193Z,14.47
2018-04-10T07:28:06.612Z,14.64
2018-04-10T07:30:34.939Z,14.78
2018-04-10T07:33:03.349Z,14.82
2018-04-10T07:35:31.697Z,14.86
2018-04-10T07:38:00.033Z,15.03
2018-04-10T07:40:28.370Z,14.86
2018-04-10T07:42:56.694Z,15.06
2018-04-10T07:45:25.056Z,15.08
2018-04-10T07:47:53.397Z,14.94
2018-04-10T07:50:21.734Z,15.13
2018-04-10T07:52:50.056Z,14.71
2018-04-10T07:55:18.404Z,14.95
2018-04-10T07:57:46.727Z,14.98
2018-04-10T08:00:15.163Z,14.70
2018-04-10T08:02:43.464Z,14.60
2018-04-10T08:05:11.835Z,14.81
2018-04-10T08:07:40.156Z,15.09
2018-04-10T08:10:08.492Z,14.68
2018-04-10T08:12:36.871Z,14.88
2018-04-10T08:15:05.202Z,14.66
2018-04-10T08:17:33.596Z,14.98
2018-04-10T08:20:01.936Z,15.35
2018-04-10T08:22:30.293Z,15.55
2018-04-10T08:24:58.620Z,15.45
2018-04-10T08:27:26.984Z,15.49
2018-04-10T08:29:55.305Z,15.65
2018-04-10T08:32:24.601Z,15.59
2018-04-10T08:34:52.933Z,15.23
2018-04-10T08:37:21.277Z,15.17
2018-04-10T08:39:49.627Z,15.46
2018-04-10T08:42:17.972Z,15.71
2018-04-10T08:44:46.402Z,15.91
2018-04-10T08:47:14.790Z,16.24
2018-04-10T08:49:43.122Z,16.09
2018-04-10T08:52:11.485Z,16.07
2018-04-10T08:54:39.820Z,16.21
2018-04-10T08:57:08.129Z,16.28
2018-04-10T08:59:36.584Z,16.41
2018-04-10T09:02:04.953Z,16.22
2018-04-10T09:04:33.303Z,16.44
2018-04-10T09:07:01.629Z,16.40
2018-04-10T09:09:33.883Z,16.66
2018-04-10T09:12:09.155Z,16.74
2018-04-10T09:14:37.528Z,16.67
2018-04-10T09:17:05.841Z,16.83
2018-04-10T09:19:34.277Z,16.30
2018-04-10T09:22:02.600Z,16.74
2018-04-10T09:24:32.852Z,16.89
2018-04-10T09:27:01.174Z,16.98
2018-04-10T09:29:29.614Z,16.88
2018-04-10T09:31:57.994Z,17.12
2018-04-10T09:34:26.362Z,16.93
2018-04-10T09:36:54.721Z,16.67
2018-04-10T09:39:23.045Z,16.60
2018-04-10T09:41:51.397Z,16.73
2018-04-10T09:44:19.717Z,16.85
2018-04-10T09:46:48.151Z,17.06
2018-04-10T09:49:16.500Z,17.00
2018-04-10T09:51:44.904Z,17.07
2018-04-10T09:54:13.229Z,17.06
2018-04-10T09:56:41.702Z,17.18
2018-04-10T09:59:10.082Z,17.17
2018-04-10T10:01:38.494Z,17.27
2018-04-10T10:04:06.820Z,17.27
2018-04-10T10:06:36.078Z,17.34
2018-04-10T10:09:04.416Z,17.30
2018-04-10T10:11:32.760Z,17.24
2018-04-10T10:14:01.096Z,17.16
2018-04-10T10:16:29.462Z,17.12
2018-04-10T10:18:57.822Z,17.23
2018-04-10T10:21:26.185Z,17.15
2018-04-10T10:23:54.509Z,17.24
2018-04-10T10:26:22.869Z,17.38
2018-04-10T10:28:51.190Z,17.62
2018-04-10T10:31:19.512Z,17.69
2018-04-10T10:33:48.889Z,17.91
2018-04-10T10:36:17.292Z,17.74
2018-04-10T10:38:45.728Z,17.71
2018-04-10T10:41:14.116Z,17.96
2018-04-10T10:43:42.481Z,18.11
2018-04-10T10:46:10.799Z,18.38
2018-04-10T10:48:39.221Z,18.21
2018-04-10T10:51:07.559Z,18.72
2018-04-10T10:53:35.909Z,18.92
2018-04-10T10:56:04.239Z,18.96
2018-04-10T10:58:32.606Z,18.54
2018-04-10T11:01:00.955Z,18.61
2018-04-10T11:03:29.312Z,19.49
2018-04-10T11:05:57.631Z,18.97
2018-04-10T11:08:26.001Z,19.15
2018-04-10T11:10:54.392Z,19.33
2018-04-10T11:13:22.766Z,19.32
2018-04-10T11:15:51.086Z,19.41
2018-04-10T11:18:19.472Z,20.01
2018-04-10T11:20:47.916Z,19.83
2018-04-10T11:23:16.294Z,19.74
2018-04-10T11:25:44.620Z,19.64
2018-04-10T11:28:12.949Z,20.26
2018-04-10T11:30:41.383Z,20.23
2018-04-10T11:33:09.753Z,19.84
2018-04-10T11:35:38.121Z,19.61
2018-04-10T11:38:06.519Z,19.72
2018-04-10T11:40:35.198Z,20.20
2018-04-10T11:43:03.613Z,20.28
2018-04-10T11:45:31.954Z,20.33
2018-04-10T11:48:00.336Z,20.10
2018-04-10T11:50:28.709Z,20.20
2018-04-10T11:52:57.049Z,20.13
2018-04-10T11:55:25.475Z,20.48
2018-04-10T11:57:53.815Z,20.28
2018-04-10T12:00:22.162Z,20.64
2018-04-10T12:02:50.486Z,20.60
2018-04-10T12:05:18.856Z,20.69
2018-04-10T12:07:47.266Z,20.84
2018-04-10T12:10:15.641Z,20.98
2018-04-10T12:12:43.997Z,20.60
2018-04-10T12:15:12.400Z,20.72
2018-04-10T12:17:40.876Z,20.71
2018-04-10T12:20:09.287Z,20.64
2018-04-10T12:22:37.733Z,20.57
2018-04-10T12:25:06.065Z,20.64
2018-04-10T12:27:34.413Z,20.87
2018-04-10T12:30:02.794Z,21.16
2018-04-10T12:32:31.154Z,21.12
2018-04-10T12:34:59.516Z,21.09
2018-04-10T12:37:27.892Z,21.06
2018-04-10T12:39:56.271Z,21.32
2018-04-10T12:42:24.670Z,21.31
2018-04-10T12:44:53.129Z,21.80
2018-04-10T12:47:21.485Z,21.79
2018-04-10T12:49:49.830Z,22.50
2018-04-10T12:52:18.173Z,23.47
2018-04-10T12:54:46.512Z,23.63
2018-04-10T12:57:14.852Z,23.23
2018-04-10T12:59:43.188Z,23.94
2018-04-10T13:02:11.597Z,24.51
2018-04-10T13:04:39.923Z,24.33
2018-04-10T13:07:08.268Z,24.27
2018-04-10T13:09:36.619Z,23.58
2018-04-10T13:12:04.947Z,22.37
2018-04-10T13:14:33.361Z,22.50
2018-04-10T13:17:01.789Z,23.15
2018-04-10T13:19:30.191Z,23.36
2018-04-10T13:21:58.515Z,23.76
2018-04-10T13:24:26.924Z,23.71
2018-04-10T13:26:55.244Z,23.71
2018-04-10T13:29:23.587Z,23.95
2018-04-10T13:31:52.009Z,23.59
2018-04-10T13:34:20.397Z,23.45
2018-04-10T13:36:48.808Z,23.74
2018-04-10T13:39:17.247Z,23.66
2018-04-10T13:41:45.564Z,23.70
2018-04-10T13:44:13.925Z,23.68
2018-04-10T13:46:42.425Z,23.87
2018-04-10T13:49:10.741Z,23.04
2018-04-10T13:51:39.165Z,23.01
2018-04-10T13:54:07.521Z,22.51
2018-04-10T13:56:35.897Z,22.20
2018-04-10T13:59:04.241Z,22.36
2018-04-10T14:01:32.660Z,22.30
2018-04-10T14:04:01.000Z,22.26
2018-04-10T14:06:29.390Z,22.89
2018-04-10T14:08:57.716Z,22.34
2018-04-10T14:11:26.220Z,22.16
2018-04-10T14:13:54.528Z,22.02
2018-04-10T14:16:22.965Z,21.86
2018-04-10T14:18:51.272Z,21.80
2018-04-10T14:21:19.632Z,21.86
2018-04-10T14:23:47.953Z,22.01
2018-04-10T14:26:16.291Z,21.90
2018-04-10T14:28:44.624Z,21.72
2018-04-10T14:31:12.968Z,21.83
2018-04-10T14:33:41.294Z,21.71
2018-04-10T14:36:09.730Z,22.12
2018-04-10T14:38:38.073Z,22.54
2018-04-10T14:41:06.420Z,22.16
2018-04-10T14:43:34.792Z,22.15
2018-04-10T14:46:03.166Z,21.92
2018-04-10T14:48:31.538Z,21.57
2018-04-10T14:50:59.849Z,21.33
2018-04-10T14:53:28.305Z,22.01
2018-04-10T14:55:56.613Z,21.64
2018-04-10T14:58:24.991Z,21.24
2018-04-10T15:00:53.371Z,21.38
2018-04-10T15:03:21.796Z,21.12
2018-04-10T15:05:50.300Z,21.51
2018-04-10T15:08:18.640Z,21.67
2018-04-10T15:10:46.972Z,21.67
2018-04-10T15:13:15.313Z,21.63
2018-04-10T15:15:43.633Z,21.55
2018-04-10T15:18:11.991Z,21.43
2018-04-10T15:20:40.345Z,21.32
2018-04-10T15:23:08.698Z,21.45
2018-04-10T15:25:37.046Z,21.36
2018-04-10T15:28:05.425Z,21.44
2018-04-10T15:30:33.769Z,21.45
2018-04-10T15:33:02.121Z,21.09
2018-04-10T15:35:30.448Z,21.13
2018-04-10T15:37:58.796Z,20.78
2018-04-10T15:40:27.177Z,20.43
2018-04-10T15:42:55.559Z,20.70
2018-04-10T15:45:23.899Z,20.76
2018-04-10T15:47:52.282Z,20.80
2018-04-10T15:50:20.677Z,20.60
2018-04-10T15:52:49.012Z,20.45
2018-04-10T15:55:17.483Z,20.44
2018-04-10T15:57:45.788Z,20.26
2018-04-10T16:00:14.140Z,20.21
2018-04-10T16:02:42.494Z,20.30
2018-04-10T16:05:10.822Z,19.92
2018-04-10T16:07:39.192Z,19.79
2018-04-10T16:10:07.516Z,19.66
2018-04-10T16:12:36.769Z,19.56
2018-04-10T16:15:05.190Z,19.35
2018-04-10T16:17:33.564Z,19.33
2018-04-10T16:20:02.018Z,19.28
2018-04-10T16:22:30.416Z,19.02
2018-04-10T16:24:58.806Z,18.99
2018-04-10T16:27:27.115Z,18.93
2018-04-10T16:29:55.497Z,18.94
2018-04-10T16:32:23.797Z,18.97
2018-04-10T16:34:52.221Z,18.94
2018-04-10T16:37:20.533Z,18.96
2018-04-10T16:39:48.967Z,18.97
2018-04-10T16:42:17.304Z,18.93
2018-04-10T16:44:45.660Z,18.95
2018-04-10T16:47:14.043Z,18.76
2018-04-10T16:49:42.416Z,18.51
2018-04-10T16:52:10.856Z,18.55
2018-04-10T16:54:39.178Z,18.48
2018-04-10T16:57:07.512Z,18.54
2018-04-10T16:59:35.824Z,18.53
2018-04-10T17:02:04.214Z,18.41
2018-04-10T17:04:32.509Z,18.31
2018-04-10T17:07:00.969Z,18.28
2018-04-10T17:09:30.339Z,18.10
2018-04-10T17:11:58.697Z,18.16
2018-04-10T17:14:27.009Z,18.11
2018-04-10T17:16:55.462Z,17.99
2018-04-10T17:19:23.770Z,17.92
2018-04-10T17:21:52.113Z,17.96
2018-04-10T17:24:20.462Z,17.91
2018-04-10T17:26:48.784Z,17.88
2018-04-10T17:29:17.108Z,17.86
2018-04-10T17:31:45.478Z,17.90
2018-04-10T17:34:13.822Z,17.77
2018-04-10T17:36:42.175Z,17.74
2018-04-10T17:39:10.570Z,17.68
2018-04-10T17:41:38.917Z,17.63
2018-04-10T17:44:07.226Z,17.63
2018-04-10T17:46:35.617Z,17.56
2018-04-10T17:49:03.927Z,17.44
2018-04-10T17:51:33.113Z,17.53
2018-04-10T17:54:01.430Z,17.43
2018-04-10T17:56:29.745Z,17.36
2018-04-10T17:58:58.072Z,17.30
2018-04-10T18:01:26.408Z,17.26
2018-04-10T18:03:54.748Z,17.27
2018-04-10T18:06:23.177Z,17.22
2018-04-10T18:08:51.509Z,17.21
2018-04-10T18:11:19.837Z,17.34
2018-04-10T18:13:48.181Z,17.28
2018-04-10T18:16:16.501Z,17.22
2018-04-10T18:18:44.917Z,17.16
2018-04-10T18:21:13.240Z,17.18
2018-04-10T18:23:41.598Z,17.19
2018-04-10T18:26:09.903Z,17.17
2018-04-10T18:28:38.257Z,17.17
2018-04-10T18:31:06.615Z,17.15
2018-04-10T18:33:34.947Z,17.15
2018-04-10T18:36:03.257Z,17.07
2018-04-10T18:38:31.580Z,16.96
2018-04-10T18:40:59.929Z,16.81
2018-04-10T18:43:28.336Z,16.84
2018-04-10T18:45:56.638Z,16.90
2018-04-10T18:48:24.976Z,16.95
2018-04-10T18:50:53.316Z,16.87
2018-04-10T18:53:21.716Z,17.02
2018-04-10T18:55:50.065Z,17.04
2018-04-10T18:58:18.432Z,16.88
2018-04-10T19:00:46.752Z,16.75
2018-04-10T19:03:15.070Z,16.71
2018-04-10T19:05:43.423Z,16.68
2018-04-10T19:08:11.767Z,16.46
2018-04-10T19:10:40.115Z,16.02
2018-04-10T19:13:08.423Z,15.91
2018-04-10T19:15:36.797Z,15.88
2018-04-10T19:18:05.161Z,15.79
2018-04-10T19:20:33.561Z,15.66
2018-04-10T19:23:01.934Z,15.38
2018-04-10T19:25:30.289Z,15.42
2018-04-10T19:27:58.630Z,15.20
2018-04-10T19:30:26.976Z,15.08
2018-04-10T19:32:55.340Z,14.96
2018-04-10T19:35:23.700Z,14.81
2018-04-10T19:37:52.095Z,14.46
2018-04-10T19:40:20.460Z,14.31
2018-04-10T19:42:48.785Z,14.51
2018-04-10T19:45:17.085Z,14.28
2018-04-10T19:47:45.519Z,13.91
2018-04-10T19:50:13.838Z,13.98
2018-04-10T19:52:42.189Z,14.12
2018-04-10T19:55:10.552Z,13.95
2018-04-10T19:57:38.901Z,14.06
2018-04-10T20:00:07.216Z,13.86
2018-04-10T20:02:35.591Z,13.60
2018-04-10T20:05:03.908Z,13.69
2018-04-10T20:07:32.343Z,13.40
2018-04-10T20:10:00.661Z,13.69
2018-04-10T20:12:29.002Z,13.66
2018-04-10T20:14:57.320Z,13.53
2018-04-10T20:17:25.761Z,13.52
2018-04-10T20:19:54.074Z,13.39
2018-04-10T20:22:22.446Z,13.10
2018-04-10T20:24:50.784Z,13.33
2018-04-10T20:27:19.148Z,13.28
2018-04-10T20:29:47.444Z,13.18
2018-04-10T20:32:15.811Z,13.04
2018-04-10T20:34:44.193Z,13.04
2018-04-10T20:37:12.517Z,12.90
2018-04-10T20:39:40.955Z,13.10
2018-04-10T20:42:09.328Z,13.12
2018-04-10T20:44:37.673Z,13.00
2018-04-10T20:47:05.988Z,13.07
2018-04-10T20:49:34.344Z,12.66
2018-04-10T20:52:02.662Z,12.81
2018-04-10T20:54:31.117Z,12.78
2018-04-10T20:56:59.509Z,12.88
2018-04-10T20:59:27.861Z,12.94
2018-04-10T21:01:56.181Z,12.84
2018-04-10T21:04:24.637Z,12.90
2018-04-10T21:06:53.013Z,13.05
2018-04-10T21:09:21.357Z,13.07
2018-04-10T21:11:49.763Z,13.12
2018-04-10T21:14:18.137Z,13.17
2018-04-10T21:16:46.466Z,13.16
2018-04-10T21:19:14.795Z,13.29
2018-04-10T21:21:43.176Z,13.23
2018-04-10T21:24:11.551Z,13.13
2018-04-10T21:26:39.899Z,12.81
2018-04-10T21:29:08.231Z,12.63
2018-04-10T21:31:36.590Z,12.47
2018-04-10T21:34:04.975Z,12.40
2018-04-10T21:36:33.332Z,12.07
2018-04-10T21:39:01.661Z,12.06
2018-04-10T21:41:30.061Z,12.09
2018-04-10T21:43:58.412Z,12.15
2018-04-10T21:46:26.757Z,11.97
2018-04-10T21:48:55.138Z,11.91
2018-04-10T21:51:23.488Z,12.10
2018-04-10T21:53:51.826Z,11.77
2018-04-10T21:56:20.163Z,11.95
2018-04-10T21:58:48.483Z,12.05
2018-04-10T22:01:16.829Z,12.01
2018-04-10T22:03:45.205Z,12.17
2018-04-10T22:06:13.685Z,12.33
2018-04-10T22:08:42.060Z,12.12
2018-04-10T22:11:10.480Z,12.22
2018-04-10T22:13:38.817Z,12.07
2018-04-10T22:16:07.237Z,12.01
2018-04-10T22:18:35.585Z,11.99
2018-04-10T22:21:03.926Z,12.30
2018-04-10T22:23:32.272Z,12.19
2018-04-10T22:26:00.611Z,12.16
2018-04-10T22:28:28.960Z,12.22
2018-04-10T22:30:57.279Z,11.99
2018-04-10T22:33:25.723Z,12.17
2018-04-10T22:35:54.044Z,12.27
2018-04-10T22:38:22.398Z,11.98
2018-04-10T22:40:50.756Z,12.03
2018-04-10T22:43:19.116Z,12.04
2018-04-10T22:45:47.470Z,11.97
2018-04-10T22:48:15.784Z,12.16
2018-04-10T22:50:44.176Z,12.41
2018-04-10T22:53:12.490Z,12.42
2018-04-10T22:55:40.904Z,12.25
2018-04-10T22:58:09.300Z,12.22
2018-04-10T23:00:50.058Z,12.26
2018-04-10T23:03:18.369Z,12.20
2018-04-10T23:05:46.814Z,12.28
2018-04-10T23:08:15.140Z,12.32
2018-04-10T23:10:43.488Z,12.41
2018-04-10T23:13:11.862Z,12.00
2018-04-10T23:15:40.204Z,12.24
2018-04-10T23:18:08.621Z,12.33
2018-04-10T23:20:36.990Z,12.33
2018-04-10T23:23:05.319Z,12.40
2018-04-10T23:25:33.668Z,12.32
2018-04-10T23:28:02.057Z,12.39
2018-04-10T23:30:30.431Z,12.02
2018-04-10T23:32:58.806Z,11.88
2018-04-10T23:35:27.189Z,12.10
2018-04-10T23:37:55.540Z,12.13
2018-04-10T23:40:23.865Z,12.12
2018-04-10T23:42:52.220Z,11.62
2018-04-10T23:45:20.544Z,11.93
2018-04-10T23:47:48.898Z,11.78
2018-04-10T23:50:17.219Z,11.94
2018-04-10T23:52:46.545Z,11.98
2018-04-10T23:55:14.929Z,11.62
2018-04-10T23:57:43.281Z,11.73
